Time;durP1;ratioP1;P1;durP2;ratioP2;P2;SDS_P1;SDS_P2;PMS_P1;PMS_P2;Temp;Humidity;BMP_temperature;BMP_pressure;BME280_temperature;BME280_humidity;BME280_pressure;Samples;Min_cycle;Max_cycle;Signal;HPM_P1;HPM_P2
2022/11/25 00:01:26;;;;;;;38.97;27.10;;;8.10;99.90;;;;;;5065277;28;20240;-77
2022/11/25 00:03:57;;;;;;;31.08;24.70;;;8.10;99.90;;;;;;5068854;28;20224;-79
2022/11/25 00:06:27;;;;;;;38.15;27.20;;;8.10;99.90;;;;;;5086904;28;20224;-76
2022/11/25 00:08:58;;;;;;;37.53;30.02;;;8.10;99.90;;;;;;5061037;28;20262;-78
2022/11/25 00:11:25;;;;;;;38.90;28.08;;;8.10;99.90;;;;;;5073508;28;20239;-77
2022/11/25 00:13:53;;;;;;;36.90;28.00;;;8.10;99.90;;;;;;5064936;28;20212;-79
2022/11/25 00:16:22;;;;;;;38.92;30.25;;;8.10;99.90;;;;;;5069290;28;20228;-76
2022/11/25 00:18:52;;;;;;;36.15;27.55;;;8.00;99.90;;;;;;5070222;28;20234;-76
2022/11/25 00:21:21;;;;;;;39.65;29.40;;;7.90;99.90;;;;;;5049901;28;20222;-77
2022/11/25 00:23:52;;;;;;;31.08;26.13;;;7.90;99.90;;;;;;5048613;28;20279;-77
2022/11/25 00:26:21;;;;;;;36.53;25.90;;;8.00;99.90;;;;;;5040821;28;20221;-77
2022/11/25 00:28:50;;;;;;;41.83;27.25;;;8.00;99.90;;;;;;5062801;28;20232;-78
2022/11/25 00:31:19;;;;;;;38.63;29.05;;;7.90;99.90;;;;;;5065316;28;20303;-78
2022/11/25 00:33:46;;;;;;;37.35;28.13;;;8.00;99.90;;;;;;5060386;28;20224;-77
2022/11/25 00:36:17;;;;;;;36.80;28.15;;;8.00;99.90;;;;;;5066059;28;20255;-78
2022/11/25 00:38:44;;;;;;;37.45;27.13;;;7.90;99.90;;;;;;5067988;28;20595;-78
2022/11/25 00:46:42;;;;;;;37.83;27.80;;;7.90;99.90;;;;;;5069012;28;20323;-77
2022/11/25 00:49:09;;;;;;;37.88;25.67;;;7.90;99.90;;;;;;5065778;28;20236;-78
2022/11/25 00:51:36;;;;;;;33.05;26.02;;;7.90;99.90;;;;;;5060543;28;20697;-78
2022/11/25 00:54:03;;;;;;;38.42;27.20;;;7.90;99.90;;;;;;5059028;28;20225;-78
2022/11/25 00:56:30;;;;;;;36.15;27.67;;;7.90;99.90;;;;;;5049821;28;20312;-78
2022/11/25 00:59:08;;;;;;;37.03;28.52;;;7.90;99.90;;;;;;5027857;28;20241;-78
2022/11/25 01:01:39;;;;;;;35.00;25.90;;;7.90;99.90;;;;;;5037642;28;20225;-78
2022/11/25 01:04:09;;;;;;;33.95;25.52;;;7.90;99.90;;;;;;5048543;28;20220;-78
2022/11/25 01:06:37;;;;;;;28.40;23.80;;;7.90;99.90;;;;;;5057858;28;20221;-77
2022/11/25 01:09:08;;;;;;;33.60;24.27;;;7.90;99.90;;;;;;5055928;28;20232;-78
2022/11/25 01:11:36;;;;;;;38.70;27.33;;;7.90;99.90;;;;;;5056298;28;20247;-78
2022/11/25 01:14:17;;;;;;;29.10;23.77;;;7.90;99.90;;;;;;5055960;28;20235;-78
2022/11/25 01:16:54;;;;;;;32.60;24.63;;;7.80;99.90;;;;;;5055173;28;20278;-78
2022/11/25 01:19:21;;;;;;;34.13;28.30;;;7.90;99.90;;;;;;5055188;28;20650;-79
2022/11/25 01:21:51;;;;;;;32.90;25.27;;;7.90;99.90;;;;;;5060345;28;20682;-79
2022/11/25 01:24:20;;;;;;;41.40;27.60;;;7.90;99.90;;;;;;5060241;28;20229;-79
2022/11/25 01:26:51;;;;;;;36.90;27.90;;;7.90;99.90;;;;;;5059607;28;20282;-79
2022/11/25 01:29:20;;;;;;;35.83;26.70;;;7.90;99.90;;;;;;5039081;28;20256;-79
2022/11/25 01:31:48;;;;;;;34.33;24.85;;;7.90;99.90;;;;;;5030143;28;20225;-79
2022/11/25 01:34:28;;;;;;;37.45;28.25;;;7.90;99.90;;;;;;5050773;28;20741;-79
2022/11/25 01:36:57;;;;;;;35.75;26.73;;;7.90;99.90;;;;;;5045526;28;20240;-79
2022/11/25 01:39:28;;;;;;;32.33;24.98;;;7.90;99.90;;;;;;5055015;28;20235;-79
2022/11/25 01:42:04;;;;;;;36.35;24.23;;;7.90;99.90;;;;;;5052880;28;20678;-79
2022/11/25 01:44:38;;;;;;;40.05;29.00;;;8.00;99.90;;;;;;5053091;28;20216;-79
2022/11/25 01:47:13;;;;;;;36.92;27.55;;;7.90;99.90;;;;;;5052559;28;20282;-79
2022/11/25 01:49:47;;;;;;;40.92;26.25;;;8.00;99.90;;;;;;5039324;28;20228;-79
2022/11/25 01:52:22;;;;;;;35.08;26.10;;;8.00;99.90;;;;;;5053261;28;20747;-79
2022/11/25 01:54:54;;;;;;;36.63;26.42;;;7.90;99.90;;;;;;5052856;28;20236;-79
2022/11/25 01:57:35;;;;;;;39.88;27.90;;;8.00;99.90;;;;;;5053986;28;20531;-79
2022/11/25 02:00:12;;;;;;;36.88;25.35;;;7.90;99.90;;;;;;5051163;28;20314;-79
2022/11/25 02:02:57;;;;;;;33.58;25.63;;;8.00;99.90;;;;;;5041911;28;20213;-79
2022/11/25 02:05:34;;;;;;;32.40;23.88;;;8.00;99.90;;;;;;5050023;28;20217;-79
2022/11/25 02:08:09;;;;;;;33.85;23.38;;;8.00;99.90;;;;;;5045671;28;20232;-79
2022/11/25 02:10:43;;;;;;;37.63;28.80;;;8.00;99.90;;;;;;5056198;28;20633;-79
2022/11/25 02:13:13;;;;;;;38.80;26.17;;;7.90;99.90;;;;;;5032549;28;20274;-79
2022/11/25 02:15:50;;;;;;;39.97;27.13;;;7.90;99.90;;;;;;5032147;28;20240;-78
2022/11/25 02:18:24;;;;;;;38.80;27.38;;;7.90;99.90;;;;;;5034449;28;20292;-79
2022/11/25 02:20:54;;;;;;;37.10;27.08;;;7.90;99.90;;;;;;5037592;28;20225;-79
2022/11/25 02:23:33;;;;;;;40.50;28.98;;;7.80;99.90;;;;;;5065535;28;20212;-79
2022/11/25 02:26:01;;;;;;;40.40;27.55;;;7.80;99.90;;;;;;5052662;28;20221;-77
2022/11/25 02:28:31;;;;;;;35.00;25.13;;;7.80;99.90;;;;;;5052703;28;20240;-77
2022/11/25 02:30:59;;;;;;;35.55;25.77;;;7.80;99.90;;;;;;5032279;28;20698;-76
2022/11/25 02:33:27;;;;;;;38.55;25.65;;;7.80;99.90;;;;;;5032298;28;20675;-78
2022/11/25 02:35:56;;;;;;;34.08;23.27;;;7.80;99.90;;;;;;5031908;28;20727;-80
2022/11/25 02:38:26;;;;;;;30.95;22.92;;;7.80;99.90;;;;;;5049865;28;20228;-80
2022/11/25 02:41:00;;;;;;;37.17;25.75;;;7.90;99.90;;;;;;5051370;28;20217;-76
2022/11/25 02:43:30;;;;;;;38.40;27.15;;;7.90;99.90;;;;;;5052640;28;20220;-75
2022/11/25 02:46:01;;;;;;;38.75;25.80;;;7.90;99.90;;;;;;5052448;28;20225;-75
2022/11/25 02:48:31;;;;;;;32.30;24.42;;;7.90;99.90;;;;;;5041977;28;20332;-78
2022/11/25 02:50:59;;;;;;;36.28;24.20;;;7.90;99.90;;;;;;5031231;28;20256;-76
2022/11/25 02:53:26;;;;;;;32.70;24.83;;;7.90;99.90;;;;;;5030361;28;20729;-78
2022/11/25 02:55:54;;;;;;;33.28;25.38;;;7.90;99.90;;;;;;5056079;28;20212;-76
2022/11/25 02:58:21;;;;;;;31.42;23.20;;;7.90;99.90;;;;;;5058882;28;20236;-77
2022/11/25 03:00:49;;;;;;;29.40;23.07;;;7.90;99.90;;;;;;5005568;28;1285639;-77
2022/11/25 03:03:17;;;;;;;38.15;26.38;;;7.90;99.90;;;;;;5052814;28;20523;-79
2022/11/25 03:05:44;;;;;;;38.10;26.08;;;8.00;99.90;;;;;;5051392;28;20225;-79
2022/11/25 03:08:12;;;;;;;28.63;22.85;;;8.00;99.90;;;;;;5052257;28;20232;-79
2022/11/25 03:10:39;;;;;;;26.05;21.42;;;8.10;99.90;;;;;;5051029;28;20298;-77
2022/11/25 03:13:09;;;;;;;29.08;22.35;;;8.10;99.90;;;;;;5067051;28;20312;-79
2022/11/25 03:15:37;;;;;;;32.63;22.95;;;8.10;99.90;;;;;;5048410;28;20225;-79
2022/11/25 03:18:07;;;;;;;34.08;22.70;;;8.10;99.90;;;;;;5050209;28;20221;-77
2022/11/25 03:20:35;;;;;;;30.25;23.70;;;8.10;99.90;;;;;;5050596;28;20221;-79
2022/11/25 03:23:03;;;;;;;23.52;20.42;;;8.10;99.90;;;;;;5050333;28;20278;-79
2022/11/25 03:25:30;;;;;;;28.13;22.23;;;8.20;99.90;;;;;;5052010;28;20220;-79
2022/11/25 03:27:57;;;;;;;28.23;20.27;;;8.20;99.90;;;;;;5052274;28;20277;-77
2022/11/25 03:30:25;;;;;;;28.05;22.63;;;8.20;99.90;;;;;;5052483;28;20740;-79
2022/11/25 03:32:53;;;;;;;21.80;17.88;;;8.10;99.90;;;;;;5052293;28;20229;-79
2022/11/25 03:35:22;;;;;;;26.60;19.60;;;8.20;99.90;;;;;;5052610;28;20244;-80
2022/11/25 03:37:49;;;;;;;24.60;18.45;;;8.20;99.90;;;;;;5051924;28;20248;-79
2022/11/25 03:40:16;;;;;;;25.00;20.00;;;8.20;99.90;;;;;;5041425;28;20228;-79
2022/11/25 03:42:45;;;;;;;23.67;20.00;;;8.20;99.90;;;;;;5052210;28;20611;-79
2022/11/25 03:45:14;;;;;;;23.80;20.98;;;8.20;99.90;;;;;;5058787;28;20221;-78
2022/11/25 03:47:42;;;;;;;22.40;19.52;;;8.20;99.90;;;;;;5060112;28;20220;-77
2022/11/25 03:50:10;;;;;;;22.10;19.75;;;8.20;99.90;;;;;;5052351;28;20229;-76
2022/11/25 03:52:40;;;;;;;26.20;19.00;;;8.20;99.90;;;;;;5053451;28;20244;-79
2022/11/25 03:55:07;;;;;;;22.95;18.40;;;8.20;99.90;;;;;;5055568;28;20253;-79
2022/11/25 03:57:38;;;;;;;27.58;20.42;;;8.20;99.90;;;;;;5055928;28;20224;-79
2022/11/25 04:00:06;;;;;;;29.85;22.05;;;8.10;99.90;;;;;;5055534;28;20558;-76
2022/11/25 04:02:33;;;;;;;23.20;19.27;;;8.20;99.90;;;;;;5055446;28;20705;-77
2022/11/25 04:05:02;;;;;;;30.00;19.38;;;8.20;99.90;;;;;;5055686;28;20541;-79
2022/11/25 04:07:29;;;;;;;25.08;19.35;;;8.10;99.90;;;;;;5056392;28;20587;-79
2022/11/25 04:09:57;;;;;;;25.77;19.88;;;8.20;99.90;;;;;;5055059;28;20566;-79
2022/11/25 04:15:09;;;;;;;25.33;19.17;;;8.10;99.90;;;;;;5054863;28;20298;-78
2022/11/25 04:17:36;;;;;;;29.02;20.17;;;8.20;99.90;;;;;;5055779;28;20740;-78
2022/11/25 04:20:03;;;;;;;24.30;19.70;;;8.20;99.90;;;;;;5055147;28;20229;-78
2022/11/25 04:22:30;;;;;;;27.85;21.70;;;8.20;99.90;;;;;;5055787;28;20251;-76
2022/11/25 04:25:00;;;;;;;24.00;18.60;;;8.20;99.90;;;;;;5055004;28;20231;-77
2022/11/25 04:27:27;;;;;;;21.60;16.23;;;8.20;99.90;;;;;;5055479;28;20221;-77
2022/11/25 04:29:54;;;;;;;21.98;18.90;;;8.20;99.90;;;;;;5054948;28;20228;-79
2022/11/25 04:32:21;;;;;;;22.90;18.10;;;8.20;99.90;;;;;;5055957;28;20297;-79
2022/11/25 04:34:48;;;;;;;23.60;17.25;;;8.20;99.90;;;;;;5055397;28;20229;-78
2022/11/25 04:37:17;;;;;;;27.10;19.85;;;8.30;99.90;;;;;;5044960;28;20337;-79
2022/11/25 04:39:44;;;;;;;23.58;20.92;;;8.30;99.90;;;;;;5054593;28;20311;-79
2022/11/25 04:44:57;;;;;;;25.30;18.00;;;8.30;99.90;;;;;;5055383;28;20236;-76
2022/11/25 04:47:24;;;;;;;18.98;16.52;;;8.30;99.90;;;;;;5055773;28;20244;-79
2022/11/25 04:49:51;;;;;;;25.42;20.05;;;8.30;99.90;;;;;;5055208;28;20221;-77
2022/11/25 04:52:18;;;;;;;22.75;18.48;;;8.30;99.90;;;;;;5054814;28;20229;-79
2022/11/25 04:54:45;;;;;;;25.95;19.52;;;8.30;99.90;;;;;;5055243;28;20239;-80
2022/11/25 04:57:15;;;;;;;27.75;20.02;;;8.40;99.90;;;;;;5054537;28;20290;-76
2022/11/25 04:59:42;;;;;;;26.05;22.48;;;8.40;99.90;;;;;;5055037;28;20560;-76
2022/11/25 05:02:14;;;;;;;25.58;19.55;;;8.40;99.90;;;;;;5054715;28;20220;-79
2022/11/25 05:04:42;;;;;;;23.73;18.48;;;8.40;99.90;;;;;;5055114;28;20255;-76
2022/11/25 05:07:09;;;;;;;21.98;19.13;;;8.40;99.90;;;;;;5054611;28;20687;-78
2022/11/25 05:09:36;;;;;;;24.70;18.75;;;8.40;99.90;;;;;;5055097;28;20225;-76
2022/11/25 05:12:05;;;;;;;20.70;16.92;;;8.40;99.90;;;;;;5054027;28;20736;-77
2022/11/25 05:14:34;;;;;;;25.23;19.90;;;8.40;99.90;;;;;;5054844;28;20225;-76
2022/11/25 05:17:01;;;;;;;21.70;18.08;;;8.50;99.90;;;;;;5054428;28;20338;-76
2022/11/25 05:19:28;;;;;;;22.85;17.92;;;8.40;99.90;;;;;;5054746;28;20276;-76
2022/11/25 05:21:55;;;;;;;29.65;20.83;;;8.50;99.90;;;;;;5052397;28;20307;-76
2022/11/25 05:24:22;;;;;;;26.35;20.42;;;8.40;99.90;;;;;;5054068;28;20221;-76
2022/11/25 05:26:49;;;;;;;21.20;18.65;;;8.50;99.90;;;;;;5054945;28;20275;-79
2022/11/25 05:29:16;;;;;;;26.70;21.17;;;8.50;99.90;;;;;;5054088;28;20568;-77
2022/11/25 05:31:47;;;;;;;25.30;19.30;;;8.50;99.90;;;;;;5054635;28;20221;-78
2022/11/25 05:34:14;;;;;;;30.88;21.90;;;8.50;99.90;;;;;;5053636;28;20229;-79
2022/11/25 05:36:41;;;;;;;24.52;19.40;;;8.50;99.90;;;;;;5054299;28;20549;-79
2022/11/25 05:39:08;;;;;;;26.25;20.52;;;8.50;99.90;;;;;;5053658;28;20228;-79
2022/11/25 05:41:38;;;;;;;25.48;20.83;;;8.50;99.90;;;;;;5054355;28;20323;-76
2022/11/25 05:44:05;;;;;;;24.85;18.73;;;8.50;99.90;;;;;;5053461;28;20216;-79
2022/11/25 05:46:32;;;;;;;26.20;18.48;;;8.50;99.90;;;;;;5054495;28;20534;-79
2022/11/25 05:49:01;;;;;;;26.90;18.52;;;8.40;99.90;;;;;;5054366;28;20624;-78
2022/11/25 05:51:28;;;;;;;30.52;19.95;;;8.40;99.90;;;;;;5053584;28;20307;-77
2022/11/25 05:53:56;;;;;;;30.08;22.70;;;8.40;99.90;;;;;;5053710;28;20286;-76
2022/11/25 05:56:23;;;;;;;26.23;20.00;;;8.40;99.90;;;;;;5052852;28;20686;-76
2022/11/25 05:58:50;;;;;;;25.48;19.48;;;8.30;99.90;;;;;;5053418;28;20225;-77
2022/11/25 06:01:17;;;;;;;27.15;21.20;;;8.30;99.90;;;;;;5053854;28;20247;-78
2022/11/25 06:03:44;;;;;;;29.73;21.60;;;8.30;99.90;;;;;;5054924;28;20217;-78
2022/11/25 06:06:13;;;;;;;27.73;21.40;;;8.40;99.90;;;;;;5054228;28;20220;-78
2022/11/25 06:08:40;;;;;;;31.42;22.35;;;8.40;99.90;;;;;;5056330;28;20220;-76
2022/11/25 06:11:08;;;;;;;28.60;22.70;;;8.30;99.90;;;;;;5054589;28;20690;-77
2022/11/25 06:13:35;;;;;;;35.80;26.27;;;8.30;99.90;;;;;;5054541;28;20235;-78
2022/11/25 06:16:08;;;;;;;29.80;22.67;;;8.30;99.90;;;;;;5053578;28;20228;-76
2022/11/25 06:18:36;;;;;;;31.42;23.08;;;8.30;99.90;;;;;;5068740;28;20228;-76
2022/11/25 06:21:04;;;;;;;38.67;25.30;;;8.30;99.90;;;;;;5053815;28;20220;-76
2022/11/25 06:23:33;;;;;;;35.38;25.60;;;8.30;99.90;;;;;;5053521;28;20255;-79
2022/11/25 06:26:07;;;;;;;35.70;24.45;;;8.20;99.90;;;;;;5054491;28;20519;-80
2022/11/25 06:28:35;;;;;;;33.90;23.73;;;8.20;99.90;;;;;;5053688;28;20225;-79
2022/11/25 06:31:07;;;;;;;33.47;23.88;;;8.20;99.90;;;;;;5054016;28;20232;-79
2022/11/25 06:33:34;;;;;;;38.60;23.63;;;8.10;99.90;;;;;;5053652;28;20225;-79
2022/11/25 06:36:04;;;;;;;32.63;22.90;;;8.10;99.90;;;;;;5053767;28;20303;-79
2022/11/25 06:38:32;;;;;;;38.30;24.75;;;8.10;99.90;;;;;;5053633;28;20308;-76
2022/11/25 06:41:02;;;;;;;32.97;22.23;;;8.10;99.90;;;;;;5053774;28;20606;-77
2022/11/25 06:43:53;;;;;;;32.75;22.15;;;8.10;99.90;;;;;;5054981;28;20523;-77
2022/11/25 06:46:23;;;;;;;33.75;23.30;;;8.10;99.90;;;;;;5042701;28;20303;-80
2022/11/25 06:48:50;;;;;;;37.35;23.75;;;8.00;99.90;;;;;;5053482;28;20690;-76
2022/11/25 06:51:17;;;;;;;33.25;22.77;;;8.00;99.90;;;;;;5052709;28;20663;-77
2022/11/25 06:56:42;;;;;;;32.50;23.90;;;8.00;99.90;;;;;;5070419;28;20223;-77
2022/11/25 06:59:09;;;;;;;36.30;25.10;;;8.00;99.90;;;;;;5071546;28;20310;-79
2022/11/25 07:01:37;;;;;;;31.92;24.88;;;8.00;99.90;;;;;;5073236;28;20220;-80
2022/11/25 07:04:05;;;;;;;36.08;27.10;;;7.90;99.90;;;;;;5072386;28;20224;-81
2022/11/25 07:06:39;;;;;;;29.38;21.52;;;7.90;99.90;;;;;;5072699;28;20566;-78
2022/11/25 07:09:08;;;;;;;33.78;22.25;;;7.90;99.90;;;;;;5072464;28;21074;-79
2022/11/25 07:11:37;;;;;;;31.80;24.27;;;8.00;99.90;;;;;;5072804;28;20211;-80
2022/11/25 07:14:06;;;;;;;33.08;23.55;;;7.90;99.90;;;;;;5061989;28;20278;-80
2022/11/25 07:16:33;;;;;;;30.98;25.02;;;7.90;99.90;;;;;;5072174;28;20251;-79
2022/11/25 07:19:01;;;;;;;41.05;29.52;;;7.90;99.90;;;;;;5072216;28;20673;-79
2022/11/25 07:21:30;;;;;;;41.22;28.65;;;7.90;99.90;;;;;;5072749;28;20224;-79
2022/11/25 07:23:59;;;;;;;33.60;24.45;;;7.90;99.90;;;;;;5072356;28;20220;-78
2022/11/25 07:26:37;;;;;;;33.97;25.27;;;7.90;99.90;;;;;;5063714;28;20281;-79
2022/11/25 07:29:11;;;;;;;35.30;26.00;;;7.90;99.90;;;;;;5076098;28;20299;-79
2022/11/25 07:31:40;;;;;;;34.05;24.88;;;7.90;99.90;;;;;;5076445;28;20559;-80
2022/11/25 07:34:12;;;;;;;40.55;27.48;;;7.90;99.90;;;;;;5076247;28;20258;-79
2022/11/25 07:36:40;;;;;;;34.88;25.52;;;7.90;99.90;;;;;;5076769;28;20653;-78
2022/11/25 07:39:11;;;;;;;32.10;23.83;;;7.90;99.90;;;;;;5075825;28;20544;-79
2022/11/25 07:41:39;;;;;;;46.72;26.90;;;7.90;99.90;;;;;;5066300;28;20219;-79
2022/11/25 07:44:07;;;;;;;43.95;27.90;;;7.90;99.90;;;;;;5075369;28;20228;-79
2022/11/25 07:46:39;;;;;;;39.75;28.05;;;7.90;99.90;;;;;;5076397;28;20235;-79
2022/11/25 07:49:08;;;;;;;34.95;26.00;;;7.90;99.90;;;;;;5075867;28;20228;-80
2022/11/25 07:51:37;;;;;;;36.45;23.98;;;7.90;99.90;;;;;;5076167;28;20308;-80
2022/11/25 07:54:06;;;;;;;34.40;21.95;;;7.90;99.90;;;;;;5074693;28;20232;-80
2022/11/25 07:56:34;;;;;;;36.72;24.75;;;7.90;99.90;;;;;;5076244;28;20227;-79
2022/11/25 07:59:03;;;;;;;40.55;26.42;;;8.00;99.90;;;;;;5075800;28;20240;-76
2022/11/25 08:01:30;;;;;;;54.05;29.38;;;7.90;99.90;;;;;;5076450;28;20223;-76
2022/11/25 08:03:57;;;;;;;47.08;26.90;;;7.80;99.90;;;;;;5076237;28;20224;-78
2022/11/25 08:06:26;;;;;;;42.03;25.30;;;7.80;99.90;;;;;;5075474;28;20250;-79
2022/11/25 08:08:55;;;;;;;38.63;25.35;;;7.80;99.90;;;;;;5075620;28;20224;-76
2022/11/25 08:11:25;;;;;;;47.83;27.05;;;7.80;99.90;;;;;;5075153;28;20220;-76
2022/11/25 08:13:52;;;;;;;40.70;25.65;;;7.70;99.90;;;;;;5076174;28;20220;-76
2022/11/25 08:16:26;;;;;;;39.55;26.60;;;7.70;99.90;;;;;;5075132;28;20334;-77
2022/11/25 08:18:54;;;;;;;43.42;25.48;;;7.70;99.90;;;;;;5076238;28;20502;-79
2022/11/25 08:21:22;;;;;;;44.15;25.83;;;7.80;99.90;;;;;;5075595;28;20228;-79
2022/11/25 08:23:51;;;;;;;44.67;27.00;;;7.80;99.90;;;;;;5067266;28;20220;-79
2022/11/25 08:26:29;;;;;;;41.67;28.90;;;7.80;99.90;;;;;;5075053;28;20220;-79
2022/11/25 08:28:57;;;;;;;41.88;26.90;;;7.80;99.90;;;;;;5075405;28;20236;-80
2022/11/25 08:31:27;;;;;;;44.25;27.80;;;7.80;99.90;;;;;;5074886;28;20220;-77
2022/11/25 08:33:57;;;;;;;44.97;26.92;;;7.80;99.90;;;;;;5075068;28;20285;-77
2022/11/25 08:36:26;;;;;;;55.63;27.20;;;7.80;99.90;;;;;;5074002;28;20338;-78
2022/11/25 08:38:57;;;;;;;57.75;30.13;;;7.80;99.90;;;;;;5064440;28;20709;-78
2022/11/25 08:41:28;;;;;;;52.47;30.17;;;7.90;99.90;;;;;;5075134;28;20228;-79
2022/11/25 08:43:57;;;;;;;45.92;28.00;;;7.90;99.90;;;;;;5074580;28;20286;-79
2022/11/25 08:46:27;;;;;;;53.08;29.38;;;7.90;99.90;;;;;;5074488;28;20550;-79
2022/11/25 08:48:55;;;;;;;39.25;24.52;;;7.90;99.90;;;;;;5075265;28;20243;-79
2022/11/25 08:51:23;;;;;;;39.38;24.30;;;7.90;99.90;;;;;;5075148;28;20257;-78
2022/11/25 08:53:51;;;;;;;37.80;26.00;;;7.90;99.90;;;;;;5075594;28;20224;-78
2022/11/25 08:56:20;;;;;;;32.25;22.25;;;8.00;99.90;;;;;;5074706;28;20281;-80
2022/11/25 08:58:48;;;;;;;39.00;25.38;;;8.00;99.90;;;;;;5075877;28;20624;-80
2022/11/25 09:01:16;;;;;;;36.78;24.92;;;8.10;99.90;;;;;;5075132;28;20220;-77
2022/11/25 09:03:49;;;;;;;42.40;26.63;;;8.10;99.90;;;;;;5075662;28;20289;-77
2022/11/25 09:06:17;;;;;;;36.47;23.38;;;8.00;99.90;;;;;;5075312;28;20228;-80
2022/11/25 09:08:45;;;;;;;37.25;25.27;;;8.00;99.90;;;;;;5075381;28;20232;-79
2022/11/25 09:11:12;;;;;;;40.85;24.85;;;7.90;99.90;;;;;;5074117;28;20227;-79
2022/11/25 09:13:39;;;;;;;37.30;25.90;;;8.00;99.90;;;;;;5074334;28;20677;-77
2022/11/25 09:16:08;;;;;;;36.45;24.92;;;8.00;99.90;;;;;;5075056;28;20223;-77
2022/11/25 09:18:35;;;;;;;33.88;24.98;;;8.00;99.90;;;;;;5074326;28;20224;-77
2022/11/25 09:21:10;;;;;;;35.58;23.45;;;8.00;99.90;;;;;;5074964;28;20215;-79
2022/11/25 09:23:40;;;;;;;33.13;24.10;;;8.10;99.90;;;;;;5074159;28;20657;-79
2022/11/25 09:26:08;;;;;;;30.63;23.38;;;8.10;99.90;;;;;;5074544;28;20673;-79
2022/11/25 09:28:35;;;;;;;40.95;25.98;;;8.10;99.90;;;;;;5074611;28;20212;-80
2022/11/25 09:31:08;;;;;;;38.75;25.67;;;8.00;99.90;;;;;;5064066;28;20616;-80
2022/11/25 09:33:35;;;;;;;31.77;24.63;;;8.00;99.90;;;;;;5063129;28;20224;-77
2022/11/25 09:36:04;;;;;;;36.35;23.50;;;8.00;99.90;;;;;;5064450;28;20228;-77
2022/11/25 09:38:33;;;;;;;37.47;23.90;;;8.10;99.90;;;;;;5062067;28;20227;-77
2022/11/25 09:41:03;;;;;;;38.08;24.88;;;8.00;99.90;;;;;;5054883;28;20224;-77
2022/11/25 09:46:46;;;;;;;32.95;21.80;;;8.10;99.90;;;;;;5045387;28;20247;-79
2022/11/25 09:49:31;;;;;;;32.85;24.20;;;8.10;99.90;;;;;;5053661;28;20232;-79
2022/11/25 09:52:09;;;;;;;32.22;22.45;;;8.20;99.90;;;;;;5073208;28;20226;-76
2022/11/25 09:54:40;;;;;;;34.40;24.67;;;8.20;99.90;;;;;;5073922;28;20681;-76
2022/11/25 09:57:21;;;;;;;35.88;26.23;;;8.20;99.90;;;;;;5074333;28;20228;-79
2022/11/25 09:59:58;;;;;;;33.72;24.70;;;8.10;99.90;;;;;;5073472;28;20636;-79
2022/11/25 10:02:39;;;;;;;34.90;23.17;;;8.10;99.90;;;;;;5073770;28;20726;-78
2022/11/25 10:05:12;;;;;;;40.75;25.83;;;8.00;99.90;;;;;;5073450;28;20564;-76
2022/11/25 10:07:45;;;;;;;34.90;25.50;;;8.10;99.90;;;;;;5074041;28;20297;-76
2022/11/25 10:10:22;;;;;;;38.67;26.60;;;8.00;99.90;;;;;;5073107;28;20224;-79
2022/11/25 10:12:51;;;;;;;33.10;22.77;;;7.90;99.90;;;;;;5073257;28;20219;-79
2022/11/25 10:15:25;;;;;;;39.55;24.42;;;8.00;99.90;;;;;;5073870;28;20220;-76
2022/11/25 10:17:56;;;;;;;40.83;25.48;;;8.00;99.90;;;;;;5073518;28;20222;-77
2022/11/25 10:20:28;;;;;;;39.08;26.13;;;8.00;99.90;;;;;;5073410;28;20232;-79
2022/11/25 10:22:59;;;;;;;38.03;25.15;;;8.00;99.90;;;;;;5073675;28;20680;-77
2022/11/25 10:25:31;;;;;;;36.22;25.27;;;8.10;99.90;;;;;;5063369;28;20298;-77
2022/11/25 10:28:04;;;;;;;42.00;24.60;;;8.10;99.90;;;;;;5072946;28;20216;-79
2022/11/25 10:30:36;;;;;;;36.00;24.50;;;8.20;99.90;;;;;;5072916;28;20231;-77
2022/11/25 10:33:13;;;;;;;33.50;22.75;;;8.30;99.90;;;;;;5072885;28;20235;-78
2022/11/25 10:35:48;;;;;;;36.55;24.40;;;8.30;99.90;;;;;;5059861;28;20216;-79
2022/11/25 10:38:21;;;;;;;35.72;23.98;;;8.30;99.90;;;;;;5063032;28;20241;-79
2022/11/25 10:40:52;;;;;;;36.17;23.60;;;8.30;99.90;;;;;;5073627;28;20220;-79
2022/11/25 10:43:19;;;;;;;35.75;24.98;;;8.40;99.90;;;;;;5062440;28;20227;-79
2022/11/25 10:45:55;;;;;;;34.47;25.17;;;8.40;99.90;;;;;;5074058;28;20296;-79
2022/11/25 10:48:33;;;;;;;39.78;24.23;;;8.40;99.90;;;;;;5072738;28;20227;-76
2022/11/25 10:51:11;;;;;;;33.67;23.23;;;8.50;99.90;;;;;;5073523;28;20223;-79
2022/11/25 10:53:43;;;;;;;31.45;22.00;;;8.50;99.90;;;;;;5073301;28;20243;-79
2022/11/25 10:56:18;;;;;;;33.65;24.13;;;8.60;99.90;;;;;;5073225;28;20323;-79
2022/11/25 10:58:45;;;;;;;29.83;21.05;;;8.60;99.90;;;;;;5073202;28;20247;-78
2022/11/25 11:01:15;;;;;;;34.33;26.58;;;8.60;99.90;;;;;;5072567;28;20327;-76
2022/11/25 11:03:46;;;;;;;37.42;26.88;;;8.70;99.90;;;;;;5072750;28;20534;-76
2022/11/25 11:06:31;;;;;;;33.38;23.98;;;8.70;99.90;;;;;;5072673;28;20235;-76
2022/11/25 11:09:00;;;;;;;39.05;24.42;;;8.70;99.90;;;;;;5073450;28;20226;-76
2022/11/25 11:11:29;;;;;;;33.33;25.95;;;8.80;99.90;;;;;;5072400;28;20635;-76
2022/11/25 11:14:12;;;;;;;39.15;27.95;;;8.80;99.90;;;;;;5073369;28;20216;-76
2022/11/25 11:16:44;;;;;;;37.55;27.92;;;8.80;99.90;;;;;;5073570;28;20611;-76
2022/11/25 11:19:22;;;;;;;43.60;28.02;;;8.80;99.90;;;;;;5063781;28;20239;-76
2022/11/25 11:21:50;;;;;;;42.15;30.05;;;8.80;99.90;;;;;;5072443;28;20232;-77
2022/11/25 11:24:38;;;;;;;46.33;30.80;;;8.70;99.90;;;;;;5072847;28;20267;-77
2022/11/25 11:27:19;;;;;;;47.05;30.15;;;8.60;99.90;;;;;;5066046;28;20228;-77
2022/11/25 11:29:50;;;;;;;45.28;31.83;;;8.50;99.90;;;;;;5072339;28;20293;-77
2022/11/25 11:32:24;;;;;;;49.00;29.85;;;8.50;99.90;;;;;;5052797;28;20217;-77
2022/11/25 11:35:02;;;;;;;42.47;31.80;;;8.40;99.90;;;;;;5052942;28;20659;-77
2022/11/25 11:37:39;;;;;;;50.75;32.83;;;8.40;99.90;;;;;;5044631;28;20260;-79
2022/11/25 11:40:20;;;;;;;53.13;31.92;;;8.30;99.90;;;;;;5052788;28;20239;-79
2022/11/25 11:43:01;;;;;;;42.60;29.48;;;8.20;99.90;;;;;;5052893;28;20224;-79
2022/11/25 11:45:52;;;;;;;49.65;29.02;;;8.20;99.90;;;;;;5053307;28;20285;-80
2022/11/25 11:48:27;;;;;;;49.28;32.65;;;8.30;99.90;;;;;;5053353;28;20224;-80
2022/11/25 11:51:03;;;;;;;53.17;33.08;;;8.30;99.90;;;;;;5041350;28;20224;-80
2022/11/25 11:53:43;;;;;;;47.70;32.05;;;8.30;99.90;;;;;;5052930;28;20240;-80
2022/11/25 11:56:56;;;;;;;43.28;30.38;;;8.30;99.90;;;;;;5053284;28;20307;-77
2022/11/25 11:59:50;;;;;;;40.67;27.50;;;8.40;99.90;;;;;;5052312;28;20241;-79
2022/11/25 12:02:45;;;;;;;41.08;30.35;;;8.50;99.90;;;;;;5041468;28;20319;-79
2022/11/25 12:05:17;;;;;;;43.83;30.30;;;8.50;99.90;;;;;;5051694;28;20291;-77
2022/11/25 12:07:53;;;;;;;43.45;30.77;;;8.60;99.90;;;;;;5052741;28;20239;-76
2022/11/25 12:10:28;;;;;;;44.63;31.10;;;8.50;99.90;;;;;;5052042;28;20567;-78
2022/11/25 12:13:05;;;;;;;46.78;32.45;;;8.50;99.90;;;;;;5052769;28;20220;-76
2022/11/25 12:15:40;;;;;;;41.25;29.60;;;8.50;99.90;;;;;;5048422;28;20239;-75
2022/11/25 12:18:19;;;;;;;42.85;30.10;;;8.60;99.90;;;;;;5060011;28;20259;-76
2022/11/25 12:20:58;;;;;;;36.72;29.88;;;8.60;99.90;;;;;;5055987;28;20235;-77
2022/11/25 12:23:32;;;;;;;37.25;28.05;;;8.60;99.90;;;;;;5055253;28;20538;-78
2022/11/25 12:26:08;;;;;;;39.63;27.23;;;8.70;99.90;;;;;;5056103;28;20248;-79
2022/11/25 12:28:41;;;;;;;36.67;24.90;;;8.80;99.90;;;;;;5055059;28;20589;-79
2022/11/25 12:31:19;;;;;;;38.15;27.58;;;8.80;99.90;;;;;;5056138;28;20220;-79
2022/11/25 12:34:00;;;;;;;31.60;25.05;;;8.80;99.90;;;;;;5055019;28;20691;-78
2022/11/25 12:36:34;;;;;;;33.55;27.48;;;8.80;99.90;;;;;;5054902;28;20690;-77
2022/11/25 12:39:06;;;;;;;31.33;25.42;;;8.80;99.90;;;;;;5055824;28;20236;-76
2022/11/25 12:41:44;;;;;;;31.98;26.10;;;8.80;99.90;;;;;;5055369;28;20259;-79
2022/11/25 12:44:17;;;;;;;34.97;25.05;;;8.80;99.90;;;;;;5055121;28;20290;-79
2022/11/25 12:46:50;;;;;;;38.60;28.33;;;8.80;99.90;;;;;;5055171;28;20231;-78
2022/11/25 12:49:20;;;;;;;31.10;25.90;;;8.80;99.90;;;;;;5055683;28;20229;-77
2022/11/25 12:52:15;;;;;;;32.78;25.77;;;8.80;99.90;;;;;;5046399;28;20674;-79
2022/11/25 12:58:28;;;;;;;36.85;27.48;;;8.80;99.90;;;;;;5050660;28;20247;-76
2022/11/25 13:01:30;;;;;;;46.17;33.50;;;8.80;99.90;;;;;;5054378;28;20307;-78
2022/11/25 13:04:54;;;;;;;35.60;26.50;;;8.70;99.90;;;;;;5074714;28;20301;-79
2022/11/25 13:07:29;;;;;;;35.13;26.70;;;8.60;99.90;;;;;;5060563;28;20235;-76
2022/11/25 13:13:16;;;;;;;40.83;27.50;;;8.60;99.90;;;;;;4944690;28;20272;-77
2022/11/25 13:15:45;;;;;;;38.33;28.00;;;8.70;99.90;;;;;;5071228;28;20231;-76
2022/11/25 13:18:17;;;;;;;39.50;28.52;;;8.60;99.90;;;;;;5078591;28;20240;-79
2022/11/25 13:20:48;;;;;;;40.28;27.60;;;8.60;99.90;;;;;;5043374;28;20240;-77